createdAt,value
2017-12-12T00:01:42.818Z,3.13
2017-12-12T00:04:10.230Z,3.00
2017-12-12T00:06:37.650Z,2.95
2017-12-12T00:09:05.058Z,3.00
2017-12-12T00:11:32.489Z,2.96
2017-12-12T00:13:59.901Z,2.88
2017-12-12T00:16:27.305Z,2.75
2017-12-12T00:18:54.722Z,2.75
2017-12-12T00:21:22.135Z,2.88
2017-12-12T00:23:49.547Z,2.81
2017-12-12T00:26:16.961Z,2.86
2017-12-12T00:28:44.390Z,2.83
2017-12-12T00:31:11.801Z,2.88
2017-12-12T00:33:39.212Z,2.93
2017-12-12T00:36:06.622Z,3.00
2017-12-12T00:38:34.034Z,2.97
2017-12-12T00:41:01.451Z,3.06
2017-12-12T00:43:28.858Z,2.97
2017-12-12T00:45:56.278Z,2.84
2017-12-12T00:48:23.686Z,2.72
2017-12-12T00:50:51.109Z,2.67
2017-12-12T00:53:18.518Z,2.75
2017-12-12T00:55:45.934Z,2.68
2017-12-12T00:58:13.350Z,2.65
2017-12-12T01:00:40.775Z,2.63
2017-12-12T01:03:08.195Z,2.60
2017-12-12T01:05:35.603Z,2.71
2017-12-12T01:08:03.022Z,2.71
2017-12-12T01:10:30.434Z,2.77
2017-12-12T01:12:57.905Z,2.71
2017-12-12T01:15:25.305Z,2.72
2017-12-12T01:17:52.726Z,2.72
2017-12-12T01:20:20.137Z,2.75
2017-12-12T01:22:47.547Z,2.84
2017-12-12T01:25:14.970Z,2.88
2017-12-12T01:27:42.382Z,2.84
2017-12-12T01:30:09.805Z,2.77
2017-12-12T01:32:37.214Z,2.64
2017-12-12T01:35:04.633Z,2.63
2017-12-12T01:37:32.058Z,2.60
2017-12-12T01:39:59.461Z,2.53
2017-12-12T01:42:26.882Z,2.49
2017-12-12T01:44:54.299Z,2.34
2017-12-12T01:47:21.722Z,2.29
2017-12-12T01:49:49.175Z,2.27
2017-12-12T01:52:16.598Z,2.30
2017-12-12T01:54:44.006Z,2.30
2017-12-12T01:57:11.448Z,2.22
2017-12-12T01:59:38.853Z,2.30
2017-12-12T02:02:06.266Z,2.41
2017-12-12T02:04:33.679Z,2.39
2017-12-12T02:07:01.094Z,2.38
2017-12-12T02:09:28.513Z,2.40
2017-12-12T02:11:55.926Z,2.42
2017-12-12T02:14:23.342Z,2.41
2017-12-12T02:16:50.758Z,2.31
2017-12-12T02:19:18.185Z,2.34
2017-12-12T02:21:45.607Z,2.35
2017-12-12T02:24:13.021Z,2.38
2017-12-12T02:26:40.445Z,2.46
2017-12-12T02:29:07.856Z,2.51
2017-12-12T02:31:35.267Z,2.50
2017-12-12T02:34:02.675Z,2.56
2017-12-12T02:36:30.098Z,2.45
2017-12-12T02:38:57.519Z,2.50
2017-12-12T02:41:24.950Z,2.54
2017-12-12T02:43:52.383Z,2.58
2017-12-12T02:46:19.791Z,2.70
2017-12-12T02:48:47.211Z,2.76
2017-12-12T02:51:14.629Z,2.60
2017-12-12T02:53:42.042Z,2.65
2017-12-12T02:56:09.458Z,2.64
2017-12-12T02:58:36.877Z,2.63
2017-12-12T03:01:04.285Z,2.64
2017-12-12T03:03:31.698Z,2.67
2017-12-12T03:05:59.118Z,2.73
2017-12-12T03:08:26.535Z,2.66
2017-12-12T03:10:53.946Z,2.62
2017-12-12T03:13:21.357Z,2.62
2017-12-12T03:15:48.790Z,2.58
2017-12-12T03:18:16.202Z,2.57
2017-12-12T03:20:43.617Z,2.71
2017-12-12T03:23:11.029Z,2.68
2017-12-12T03:25:38.438Z,2.72
2017-12-12T03:28:05.858Z,2.75
2017-12-12T03:30:33.270Z,2.68
2017-12-12T03:33:00.697Z,2.64
2017-12-12T03:38:00.796Z,2.82
2017-12-12T03:40:28.206Z,2.75
2017-12-12T03:42:55.609Z,2.82
2017-12-12T03:45:23.023Z,2.85
2017-12-12T03:47:50.433Z,2.87
2017-12-12T03:50:17.849Z,2.89
2017-12-12T03:52:45.259Z,2.92
2017-12-12T03:55:12.681Z,3.00
2017-12-12T03:57:40.090Z,2.96
2017-12-12T04:00:07.523Z,2.98
2017-12-12T04:02:34.938Z,2.85
2017-12-12T04:05:02.351Z,2.84
2017-12-12T04:07:29.774Z,2.84
2017-12-12T04:09:57.187Z,2.78
2017-12-12T04:12:24.613Z,2.76
2017-12-12T04:14:52.024Z,2.66
2017-12-12T04:17:19.434Z,2.71
2017-12-12T04:19:46.854Z,2.78
2017-12-12T04:22:14.266Z,2.70
2017-12-12T04:24:41.687Z,2.64
2017-12-12T04:27:09.095Z,2.57
2017-12-12T04:29:36.516Z,2.52
2017-12-12T04:32:03.926Z,2.56
2017-12-12T04:34:31.341Z,2.57
2017-12-12T04:36:58.757Z,2.59
2017-12-12T04:39:26.186Z,2.68
2017-12-12T04:41:53.600Z,2.73
2017-12-12T04:44:21.010Z,2.71
2017-12-12T04:46:48.430Z,2.73
2017-12-12T04:49:15.841Z,2.89
2017-12-12T04:51:43.253Z,2.89
2017-12-12T04:54:10.675Z,2.93
2017-12-12T04:56:38.086Z,2.94
2017-12-12T04:59:05.510Z,2.97
2017-12-12T05:01:32.927Z,2.96
2017-12-12T05:04:00.365Z,2.92
2017-12-12T05:06:27.782Z,3.01
2017-12-12T05:08:55.194Z,3.12
2017-12-12T05:11:22.609Z,3.09
2017-12-12T05:13:50.027Z,3.10
2017-12-12T05:16:17.489Z,3.14
2017-12-12T05:18:44.905Z,3.09
2017-12-12T05:21:12.329Z,3.17
2017-12-12T05:23:39.766Z,3.00
2017-12-12T05:26:07.174Z,3.07
2017-12-12T05:28:34.599Z,3.05
2017-12-12T05:31:02.038Z,3.05
2017-12-12T05:33:29.462Z,3.00
2017-12-12T05:35:56.886Z,3.11
2017-12-12T05:38:24.315Z,3.07
2017-12-12T05:40:51.727Z,3.16
2017-12-12T05:43:19.142Z,2.98
2017-12-12T05:45:46.575Z,3.04
2017-12-12T05:48:13.989Z,3.01
2017-12-12T05:50:41.407Z,3.09
2017-12-12T05:53:08.817Z,3.16
2017-12-12T05:55:36.256Z,3.07
2017-12-12T05:58:03.655Z,3.17
2017-12-12T06:00:31.062Z,3.17
2017-12-12T06:02:58.483Z,3.17
2017-12-12T06:05:25.893Z,3.20
2017-12-12T06:07:53.309Z,3.15
2017-12-12T06:10:20.719Z,3.18
2017-12-12T06:12:48.139Z,3.09
2017-12-12T06:15:15.545Z,2.96
2017-12-12T06:17:42.954Z,3.06
2017-12-12T06:20:10.370Z,3.16
2017-12-12T06:22:37.781Z,3.27
2017-12-12T06:25:05.203Z,3.29
2017-12-12T06:27:32.609Z,3.42
2017-12-12T06:30:00.034Z,3.37
2017-12-12T06:32:27.453Z,3.42
2017-12-12T06:34:54.875Z,3.49
2017-12-12T06:37:22.338Z,3.56
2017-12-12T06:39:49.737Z,3.42
2017-12-12T06:42:17.162Z,3.37
2017-12-12T06:44:44.570Z,3.44
2017-12-12T06:47:11.989Z,3.40
2017-12-12T06:49:39.401Z,3.34
2017-12-12T06:52:06.818Z,3.39
2017-12-12T06:54:34.234Z,3.52
2017-12-12T06:57:01.646Z,3.45
2017-12-12T06:59:29.067Z,3.50
2017-12-12T07:01:56.498Z,3.54
2017-12-12T07:04:23.909Z,3.56
2017-12-12T07:06:51.326Z,3.60
2017-12-12T07:09:18.743Z,3.52
2017-12-12T07:11:46.158Z,3.46
2017-12-12T07:14:13.569Z,3.47
2017-12-12T07:16:41.003Z,3.49
2017-12-12T07:19:08.409Z,3.63
2017-12-12T07:21:35.843Z,3.59
2017-12-12T07:24:03.270Z,3.65
2017-12-12T07:26:30.686Z,3.59
2017-12-12T07:28:58.110Z,3.64
2017-12-12T07:31:25.562Z,3.64
2017-12-12T07:33:52.983Z,3.56
2017-12-12T07:36:20.394Z,3.57
2017-12-12T07:38:47.821Z,3.66
2017-12-12T07:41:15.242Z,3.60
2017-12-12T07:43:42.646Z,3.61
2017-12-12T07:46:10.061Z,3.69
2017-12-12T07:48:37.477Z,3.72
2017-12-12T07:51:04.894Z,3.67
2017-12-12T07:53:32.318Z,3.77
2017-12-12T07:55:59.738Z,3.73
2017-12-12T07:58:27.161Z,3.79
2017-12-12T08:00:54.577Z,3.87
2017-12-12T08:03:22.001Z,3.85
2017-12-12T08:05:49.420Z,3.85
2017-12-12T08:08:16.831Z,3.95
2017-12-12T08:10:44.254Z,4.04
2017-12-12T08:13:11.669Z,3.99
2017-12-12T08:15:39.086Z,3.92
2017-12-12T08:18:06.498Z,3.92
2017-12-12T08:20:33.918Z,3.93
2017-12-12T08:23:01.333Z,3.83
2017-12-12T08:25:28.744Z,3.81
2017-12-12T08:27:56.166Z,3.87
2017-12-12T08:30:23.605Z,3.83
2017-12-12T08:32:51.030Z,3.80
2017-12-12T08:35:18.458Z,3.86
2017-12-12T08:37:45.921Z,3.91
2017-12-12T08:40:13.340Z,3.95
2017-12-12T08:42:40.763Z,3.98
2017-12-12T08:45:08.186Z,4.00
2017-12-12T08:47:35.602Z,3.97
2017-12-12T08:50:03.017Z,3.99
2017-12-12T08:52:30.438Z,4.02
2017-12-12T08:54:57.885Z,4.14
2017-12-12T08:57:25.384Z,4.17
2017-12-12T08:59:52.802Z,4.26
2017-12-12T09:02:20.229Z,4.20
2017-12-12T09:04:47.690Z,4.26
2017-12-12T09:07:15.123Z,4.31
2017-12-12T09:09:42.549Z,4.18
2017-12-12T09:12:09.989Z,4.22
2017-12-12T09:14:37.415Z,4.10
2017-12-12T09:17:04.863Z,4.09
2017-12-12T09:19:32.303Z,4.21
2017-12-12T09:21:59.723Z,4.19
2017-12-12T09:24:27.154Z,4.31
2017-12-12T09:26:54.565Z,4.31
2017-12-12T09:29:21.982Z,4.10
2017-12-12T09:31:49.409Z,4.16
2017-12-12T09:34:16.842Z,4.22
2017-12-12T09:36:44.264Z,4.23
2017-12-12T09:39:11.702Z,4.33
2017-12-12T09:41:39.114Z,4.30
2017-12-12T09:44:06.539Z,4.23
2017-12-12T09:46:33.966Z,4.40
2017-12-12T09:49:01.394Z,4.34
2017-12-12T09:51:28.813Z,4.21
2017-12-12T09:53:56.249Z,4.26
2017-12-12T09:56:23.673Z,4.15
2017-12-12T09:58:51.941Z,4.21
2017-12-12T10:01:19.357Z,4.10
2017-12-12T10:03:46.797Z,4.03
2017-12-12T10:06:14.206Z,4.12
2017-12-12T10:08:41.629Z,4.21
2017-12-12T10:11:09.077Z,4.35
2017-12-12T10:13:36.509Z,4.42
2017-12-12T10:16:03.925Z,4.55
2017-12-12T10:18:31.374Z,4.63
2017-12-12T10:20:58.815Z,4.70
2017-12-12T10:23:26.245Z,4.66
2017-12-12T10:25:53.674Z,4.62
2017-12-12T10:28:21.090Z,4.72
2017-12-12T10:30:48.517Z,4.65
2017-12-12T10:33:15.933Z,4.52
2017-12-12T10:35:43.351Z,4.63
2017-12-12T10:38:10.770Z,4.58
2017-12-12T10:40:38.200Z,4.60
2017-12-12T10:43:05.622Z,4.64
2017-12-12T10:45:33.022Z,4.69
2017-12-12T10:48:00.457Z,4.73
2017-12-12T10:50:27.917Z,4.68
2017-12-12T10:52:55.289Z,4.70
2017-12-12T10:55:22.713Z,4.78
2017-12-12T10:57:50.136Z,4.81
2017-12-12T11:00:17.550Z,4.87
2017-12-12T11:02:44.958Z,4.92
2017-12-12T11:05:12.392Z,5.04
2017-12-12T11:07:39.806Z,4.96
2017-12-12T11:10:07.219Z,5.04
2017-12-12T11:12:34.638Z,4.94
2017-12-12T11:15:02.054Z,4.96
2017-12-12T11:17:29.474Z,4.75
2017-12-12T11:19:56.890Z,4.79
2017-12-12T11:22:24.316Z,4.78
2017-12-12T11:24:51.727Z,4.76
2017-12-12T11:27:19.143Z,4.66
2017-12-12T11:29:46.554Z,4.45
2017-12-12T11:32:13.978Z,4.49
2017-12-12T11:34:41.414Z,4.58
2017-12-12T11:37:08.834Z,4.60
2017-12-12T11:39:36.266Z,4.67
2017-12-12T11:42:03.697Z,4.85
2017-12-12T11:44:31.106Z,4.95
2017-12-12T11:46:58.534Z,4.85
2017-12-12T11:49:25.945Z,4.99
2017-12-12T11:51:53.370Z,4.97
2017-12-12T11:54:20.797Z,4.97
2017-12-12T11:56:48.230Z,5.06
2017-12-12T11:59:15.654Z,4.99
2017-12-12T12:01:43.077Z,4.98
2017-12-12T12:04:10.498Z,5.03
2017-12-12T12:06:37.917Z,4.82
2017-12-12T12:09:05.346Z,4.62
2017-12-12T12:11:32.758Z,4.79
2017-12-12T12:14:00.186Z,4.77
2017-12-12T12:16:27.604Z,4.70
2017-12-12T12:18:55.010Z,4.66
2017-12-12T12:21:22.438Z,4.71
2017-12-12T12:23:49.851Z,4.80
2017-12-12T12:26:17.277Z,5.01
2017-12-12T12:28:44.698Z,5.24
2017-12-12T12:31:12.130Z,5.42
2017-12-12T12:33:39.538Z,5.34
2017-12-12T12:36:06.961Z,5.59
2017-12-12T12:38:34.389Z,5.56
2017-12-12T12:41:01.809Z,5.32
2017-12-12T12:43:29.237Z,5.46
2017-12-12T12:45:56.709Z,5.55
2017-12-12T12:48:24.148Z,5.46
2017-12-12T12:50:51.550Z,5.50
2017-12-12T12:53:18.955Z,5.32
2017-12-12T12:55:46.377Z,5.18
2017-12-12T12:58:13.801Z,5.23
2017-12-12T13:00:41.277Z,5.39
2017-12-12T13:03:08.671Z,5.60
2017-12-12T13:05:36.096Z,5.69
2017-12-12T13:08:03.507Z,5.56
2017-12-12T13:10:30.915Z,5.66
2017-12-12T13:12:58.330Z,5.67
2017-12-12T13:15:25.742Z,5.68
2017-12-12T13:17:53.152Z,5.63
2017-12-12T13:20:20.553Z,5.68
2017-12-12T13:22:47.975Z,5.65
2017-12-12T13:25:15.393Z,5.48
2017-12-12T13:27:42.829Z,5.35
2017-12-12T13:30:10.234Z,5.34
2017-12-12T13:32:37.638Z,5.27
2017-12-12T13:35:05.066Z,5.19
2017-12-12T13:37:32.590Z,5.04
2017-12-12T13:40:01.254Z,5.14
2017-12-12T13:42:28.667Z,5.22
2017-12-12T13:44:56.194Z,5.14
2017-12-12T13:47:23.666Z,5.29
2017-12-12T13:49:51.127Z,5.27
2017-12-12T13:52:18.546Z,5.17
2017-12-12T13:54:46.038Z,5.14
2017-12-12T13:57:13.533Z,5.15
2017-12-12T13:59:40.945Z,5.10
2017-12-12T14:02:08.358Z,4.84
2017-12-12T14:04:35.849Z,4.92
2017-12-12T14:07:04.068Z,4.99
2017-12-12T14:09:31.495Z,5.06
2017-12-12T14:12:00.524Z,4.89
2017-12-12T14:14:30.214Z,4.93
2017-12-12T14:16:58.257Z,4.61
2017-12-12T14:19:26.454Z,4.74
2017-12-12T14:21:54.173Z,4.81
2017-12-12T14:24:22.117Z,4.91
2017-12-12T14:26:49.582Z,4.86
2017-12-12T14:29:16.996Z,4.86
2017-12-12T14:31:44.418Z,4.91
2017-12-12T14:34:11.830Z,4.98
2017-12-12T14:36:39.250Z,4.95
2017-12-12T14:39:06.674Z,4.90
2017-12-12T14:41:34.086Z,4.89
2017-12-12T14:44:01.510Z,4.81
2017-12-12T14:46:28.923Z,4.87
2017-12-12T14:48:56.351Z,4.81
2017-12-12T14:51:23.767Z,4.69
2017-12-12T14:53:51.186Z,4.64
2017-12-12T14:56:18.606Z,4.55
2017-12-12T14:58:46.032Z,4.60
2017-12-12T15:01:13.461Z,4.62
2017-12-12T15:03:40.877Z,4.55
2017-12-12T15:06:08.309Z,4.54
2017-12-12T15:08:35.729Z,4.64
2017-12-12T15:11:03.150Z,4.69
2017-12-12T15:13:30.573Z,4.75
2017-12-12T15:15:57.986Z,4.70
2017-12-12T15:18:25.423Z,4.73
2017-12-12T15:20:52.841Z,4.78
2017-12-12T15:23:20.262Z,4.77
2017-12-12T15:25:47.674Z,4.68
2017-12-12T15:28:15.098Z,4.58
2017-12-12T15:30:42.521Z,4.62
2017-12-12T15:33:09.929Z,4.73
2017-12-12T15:35:37.407Z,4.77
2017-12-12T15:38:05.450Z,4.56
2017-12-12T15:40:35.206Z,4.60
2017-12-12T15:43:04.399Z,4.69
2017-12-12T15:45:31.809Z,4.73
2017-12-12T15:47:59.234Z,4.61
2017-12-12T15:50:26.650Z,4.51
2017-12-12T15:52:54.070Z,4.53
2017-12-12T15:55:21.498Z,4.60
2017-12-12T15:57:48.926Z,4.55
2017-12-12T16:00:16.338Z,4.53
2017-12-12T16:02:43.758Z,4.62
2017-12-12T16:05:11.259Z,4.67
2017-12-12T16:07:38.664Z,4.59
2017-12-12T16:10:06.091Z,4.60
2017-12-12T16:12:33.506Z,4.66
2017-12-12T16:15:00.944Z,4.74
2017-12-12T16:17:28.362Z,4.74
2017-12-12T16:19:55.774Z,4.59
2017-12-12T16:22:23.288Z,4.71
2017-12-12T16:24:50.703Z,4.77
2017-12-12T16:27:18.119Z,4.79
2017-12-12T16:29:45.534Z,4.76
2017-12-12T16:32:12.974Z,4.80
2017-12-12T16:34:40.410Z,4.86
2017-12-12T16:37:08.069Z,4.89
2017-12-12T16:39:35.470Z,4.95
2017-12-12T16:42:02.886Z,4.89
2017-12-12T16:44:30.317Z,4.89
2017-12-12T16:46:57.730Z,4.92
2017-12-12T16:49:25.152Z,4.87
2017-12-12T16:51:52.574Z,4.81
2017-12-12T16:54:20.002Z,4.68
2017-12-12T16:56:47.438Z,4.72
2017-12-12T16:59:14.854Z,4.77
2017-12-12T17:01:42.289Z,4.68
2017-12-12T17:04:09.718Z,4.62
2017-12-12T17:06:38.119Z,4.55
2017-12-12T17:09:05.644Z,4.57
2017-12-12T17:11:33.054Z,4.41
2017-12-12T17:14:00.486Z,4.43
2017-12-12T17:16:27.902Z,4.43
2017-12-12T17:18:55.320Z,4.36
2017-12-12T17:21:22.743Z,4.45
2017-12-12T17:23:50.190Z,4.45
2017-12-12T17:26:17.597Z,4.36
2017-12-12T17:28:45.017Z,4.49
2017-12-12T17:31:12.448Z,4.45
2017-12-12T17:33:39.901Z,4.41
2017-12-12T17:36:07.324Z,4.51
2017-12-12T17:38:34.749Z,4.34
2017-12-12T17:41:02.187Z,4.46
2017-12-12T17:43:29.604Z,4.35
2017-12-12T17:45:57.017Z,4.50
2017-12-12T17:48:24.456Z,4.55
2017-12-12T17:50:51.877Z,4.61
2017-12-12T17:53:30.067Z,4.65
2017-12-12T17:55:57.486Z,4.70
2017-12-12T17:58:24.917Z,4.76
2017-12-12T18:00:52.330Z,4.76
2017-12-12T18:03:22.930Z,4.75
2017-12-12T18:05:50.367Z,4.75
2017-12-12T18:08:17.792Z,4.77
2017-12-12T18:10:45.212Z,4.75
2017-12-12T18:13:12.622Z,4.66
2017-12-12T18:15:40.050Z,4.70
2017-12-12T18:18:08.246Z,4.68
2017-12-12T18:20:35.768Z,4.69
2017-12-12T18:23:03.209Z,4.63
2017-12-12T18:25:30.630Z,4.67
2017-12-12T18:27:58.054Z,4.59
2017-12-12T18:30:25.487Z,4.65
2017-12-12T18:32:52.918Z,4.67
2017-12-12T18:35:20.341Z,4.70
2017-12-12T18:37:47.770Z,4.61
2017-12-12T18:40:15.198Z,4.63
2017-12-12T18:42:42.627Z,4.67
2017-12-12T18:45:10.058Z,4.71
2017-12-12T18:47:37.477Z,4.71
2017-12-12T18:50:04.970Z,4.69
2017-12-12T18:52:32.403Z,4.73
2017-12-12T18:54:59.910Z,4.74
2017-12-12T18:57:27.402Z,4.68
2017-12-12T18:59:54.988Z,4.67
2017-12-12T19:02:23.166Z,4.68
2017-12-12T19:04:50.588Z,4.72
2017-12-12T19:07:18.025Z,4.77
2017-12-12T19:09:45.450Z,4.80
2017-12-12T19:12:12.866Z,4.67
2017-12-12T19:14:40.308Z,4.69
2017-12-12T19:17:07.722Z,4.73
2017-12-12T19:19:35.205Z,4.71
2017-12-12T19:22:02.609Z,4.76
2017-12-12T19:24:30.030Z,4.81
2017-12-12T19:26:57.437Z,4.75
2017-12-12T19:29:24.941Z,4.82
2017-12-12T19:31:52.530Z,4.78
2017-12-12T19:34:20.898Z,4.83
2017-12-12T19:36:49.300Z,4.80
2017-12-12T19:39:16.747Z,4.86
2017-12-12T19:41:44.202Z,4.81
2017-12-12T19:44:11.653Z,4.77
2017-12-12T19:46:40.034Z,4.80
2017-12-12T19:49:07.918Z,4.85
2017-12-12T19:51:35.367Z,4.85
2017-12-12T19:54:02.831Z,4.87
2017-12-12T19:56:30.259Z,4.88
2017-12-12T19:58:57.717Z,4.88
2017-12-12T20:01:25.138Z,4.89
2017-12-12T20:03:53.674Z,4.92
2017-12-12T20:06:21.123Z,4.92
2017-12-12T20:08:48.570Z,4.90
2017-12-12T20:11:16.000Z,4.93
2017-12-12T20:13:43.420Z,4.92
2017-12-12T20:16:10.865Z,4.93
2017-12-12T20:18:38.284Z,4.91
2017-12-12T20:21:05.702Z,4.95
2017-12-12T20:23:33.133Z,4.96
2017-12-12T20:26:00.566Z,4.89
2017-12-12T20:28:27.996Z,4.90
2017-12-12T20:30:55.413Z,4.89
2017-12-12T20:33:24.820Z,4.87
2017-12-12T20:35:52.237Z,4.86
2017-12-12T20:38:19.662Z,4.90
2017-12-12T20:40:47.094Z,4.86
2017-12-12T20:43:14.518Z,4.84
2017-12-12T20:45:42.530Z,4.84
2017-12-12T20:48:09.943Z,4.85
2017-12-12T20:50:37.362Z,4.85
2017-12-12T20:53:04.774Z,4.84
2017-12-12T20:55:32.218Z,4.82
2017-12-12T20:57:59.637Z,4.83
2017-12-12T21:00:27.051Z,4.80
2017-12-12T21:02:54.470Z,4.82
2017-12-12T21:05:21.882Z,4.82
2017-12-12T21:07:49.346Z,4.84
2017-12-12T21:10:16.753Z,4.82
2017-12-12T21:12:44.178Z,4.84
2017-12-12T21:15:11.582Z,4.81
2017-12-12T21:17:39.005Z,4.85
2017-12-12T21:20:06.442Z,4.90
2017-12-12T21:22:33.853Z,4.92
2017-12-12T21:25:01.279Z,4.88
2017-12-12T21:27:28.699Z,4.86
2017-12-12T21:29:56.134Z,4.83
2017-12-12T21:32:23.546Z,4.80
2017-12-12T21:34:50.984Z,4.81
2017-12-12T21:37:18.402Z,4.82
2017-12-12T21:39:45.814Z,4.80
2017-12-12T21:42:13.226Z,4.77
2017-12-12T21:44:40.650Z,4.78
2017-12-12T21:47:08.068Z,4.79
2017-12-12T21:49:35.502Z,4.76
2017-12-12T21:52:02.908Z,4.76
2017-12-12T21:54:30.338Z,4.73
2017-12-12T21:56:57.749Z,4.71
2017-12-12T21:59:25.166Z,4.63
2017-12-12T22:01:52.573Z,4.58
2017-12-12T22:04:20.010Z,4.52
2017-12-12T22:06:47.425Z,4.49
2017-12-12T22:09:14.842Z,4.48
2017-12-12T22:11:42.262Z,4.48
2017-12-12T22:14:09.686Z,4.53
2017-12-12T22:16:37.363Z,4.55
2017-12-12T22:19:04.796Z,4.56
2017-12-12T22:21:32.213Z,4.58
2017-12-12T22:23:59.628Z,4.59
2017-12-12T22:26:27.045Z,4.64
2017-12-12T22:28:54.469Z,4.62
2017-12-12T22:31:21.901Z,4.61
2017-12-12T22:33:49.344Z,4.59
2017-12-12T22:36:16.767Z,4.60
2017-12-12T22:38:44.201Z,4.59
2017-12-12T22:41:11.628Z,4.56
2017-12-12T22:43:39.051Z,4.53
2017-12-12T22:46:06.465Z,4.44
2017-12-12T22:48:33.883Z,4.41
2017-12-12T22:51:01.302Z,4.38
2017-12-12T22:53:28.719Z,4.31
2017-12-12T22:55:56.150Z,4.21
2017-12-12T22:58:23.558Z,4.10
2017-12-12T23:00:51.557Z,3.99
2017-12-12T23:03:18.991Z,3.90
2017-12-12T23:05:46.405Z,3.86
2017-12-12T23:08:13.838Z,3.85
2017-12-12T23:10:41.629Z,3.86
2017-12-12T23:13:09.059Z,3.83
2017-12-12T23:15:36.480Z,3.73
2017-12-12T23:18:03.902Z,3.65
2017-12-12T23:20:31.325Z,3.61
2017-12-12T23:22:58.753Z,3.54
2017-12-12T23:25:26.179Z,3.49
2017-12-12T23:27:53.602Z,3.37
2017-12-12T23:30:21.038Z,3.38
2017-12-12T23:32:48.474Z,3.31
2017-12-12T23:35:15.886Z,3.24
2017-12-12T23:37:43.310Z,3.17
2017-12-12T23:40:10.746Z,3.11
2017-12-12T23:42:38.167Z,3.06
2017-12-12T23:45:05.583Z,3.03
2017-12-12T23:47:33.018Z,2.96
2017-12-12T23:50:00.440Z,2.90
2017-12-12T23:52:27.917Z,2.84
2017-12-12T23:54:55.279Z,2.81
2017-12-12T23:57:22.697Z,2.76
2017-12-12T23:59:50.125Z,2.77
